Time;durP1;ratioP1;P1;durP2;ratioP2;P2;SDS_P1;SDS_P2;PMS_P1;PMS_P2;Temp;Humidity;BMP_temperature;BMP_pressure;BME280_temperature;BME280_humidity;BME280_pressure;Samples;Min_cycle;Max_cycle;Signal;HPM_P1;HPM_P2
2023/05/20 00:00:47;;;;;;;19.92;11.68;;;9.60;99.90;;;;;;5118857;27;20415;-54
2023/05/20 00:03:15;;;;;;;19.30;12.10;;;9.70;99.90;;;;;;5113592;27;20058;-54
2023/05/20 00:05:42;;;;;;;16.95;11.23;;;9.70;99.90;;;;;;5122759;27;20131;-55
2023/05/20 00:08:09;;;;;;;17.35;11.02;;;9.70;99.90;;;;;;5122860;27;20035;-56
2023/05/20 00:10:37;;;;;;;19.23;10.18;;;9.70;99.90;;;;;;5120719;27;20532;-54
2023/05/20 00:13:05;;;;;;;;;;;9.70;99.90;;;;;;5123550;27;20051;-54
2023/05/20 00:15:33;;;;;;;18.00;10.98;;;9.70;99.90;;;;;;5125584;27;19974;-56
2023/05/20 00:18:01;;;;;;;23.00;13.60;;;9.70;99.90;;;;;;5125640;27;20031;-54
2023/05/20 00:20:29;;;;;;;21.85;13.05;;;9.70;99.90;;;;;;5134496;27;20053;-55
2023/05/20 00:22:56;;;;;;;18.50;11.80;;;9.70;99.90;;;;;;5121601;27;20039;-54
2023/05/20 00:25:23;;;;;;;17.55;10.13;;;9.80;99.90;;;;;;5134177;27;20396;-56
2023/05/20 00:27:50;;;;;;;15.00;10.63;;;9.70;99.90;;;;;;5126199;27;20050;-54
2023/05/20 00:30:16;;;;;;;17.08;11.23;;;9.70;99.90;;;;;;5113310;27;20038;-54
2023/05/20 00:32:43;;;;;;;19.15;12.15;;;9.60;99.90;;;;;;5114527;27;20394;-54
2023/05/20 00:35:10;;;;;;;27.70;12.07;;;9.60;99.90;;;;;;5125324;27;20089;-54
2023/05/20 00:37:37;;;;;;;17.48;11.05;;;9.60;99.90;;;;;;5105736;27;20403;-55
2023/05/20 00:40:04;;;;;;;21.67;13.05;;;9.60;99.90;;;;;;5115746;27;20093;-54
2023/05/20 00:42:31;;;;;;;22.50;13.68;;;9.50;99.90;;;;;;5105203;27;20051;-54
2023/05/20 00:44:59;;;;;;;18.73;12.05;;;9.50;99.90;;;;;;5106364;27;20047;-54
2023/05/20 00:47:30;;;;;;;18.60;10.68;;;9.50;99.90;;;;;;5101790;28;20122;-57
2023/05/20 00:49:59;;;;;;;17.15;11.75;;;9.30;99.90;;;;;;5107673;27;20044;-55
2023/05/20 00:52:28;;;;;;;22.60;12.95;;;9.20;99.90;;;;;;5111128;28;20502;-54
2023/05/20 00:54:56;;;;;;;25.83;13.60;;;9.10;99.90;;;;;;5112324;27;20437;-54
2023/05/20 00:57:23;;;;;;;20.65;13.38;;;9.10;99.90;;;;;;5098537;27;20047;-55
2023/05/20 00:59:50;;;;;;;24.33;14.45;;;9.10;99.90;;;;;;5114180;27;20043;-55
2023/05/20 01:02:18;;;;;;;24.88;14.02;;;9.10;99.90;;;;;;5113265;27;20050;-54
2023/05/20 01:04:46;;;;;;;22.60;14.90;;;9.10;99.90;;;;;;5127286;27;20043;-54
2023/05/20 01:07:16;;;;;;;28.42;16.23;;;9.10;99.90;;;;;;5122530;27;20065;-56
2023/05/20 01:09:43;;;;;;;25.10;15.18;;;9.00;99.90;;;;;;5108578;28;20395;-54
2023/05/20 01:12:25;;;;;;;;;;;9.00;99.90;;;;;;5101488;27;20039;-55
2023/05/20 01:15:04;;;;;;;26.05;15.23;;;9.00;99.90;;;;;;5103199;28;19920;-57
2023/05/20 01:17:31;;;;;;;24.48;15.80;;;9.10;99.90;;;;;;5125839;27;20047;-56
2023/05/20 01:20:01;;;;;;;22.60;14.82;;;9.10;99.90;;;;;;5133080;27;20046;-56
2023/05/20 01:22:28;;;;;;;30.85;16.70;;;9.10;99.90;;;;;;5121774;27;20403;-55
2023/05/20 01:24:55;;;;;;;25.13;14.60;;;9.10;99.90;;;;;;5102759;28;20055;-57
2023/05/20 01:27:25;;;;;;;22.85;15.10;;;9.10;99.90;;;;;;5111709;27;20060;-57
2023/05/20 01:29:52;;;;;;;22.05;13.98;;;9.10;99.90;;;;;;5105797;27;20039;-56
2023/05/20 01:32:22;;;;;;;20.85;12.88;;;9.10;99.90;;;;;;5115010;27;20098;-58
2023/05/20 01:34:51;;;;;;;18.27;12.00;;;9.20;99.90;;;;;;5106408;28;20040;-58
2023/05/20 01:37:20;;;;;;;23.10;12.73;;;9.20;99.90;;;;;;5112224;27;20492;-58
2023/05/20 01:39:49;;;;;;;18.90;12.15;;;9.20;99.90;;;;;;5099078;28;20050;-56
2023/05/20 01:42:18;;;;;;;18.45;11.32;;;9.30;99.90;;;;;;5100070;27;20404;-58
2023/05/20 01:44:47;;;;;;;19.20;11.10;;;9.30;99.90;;;;;;5105664;27;20547;-57
2023/05/20 01:47:14;;;;;;;17.33;10.98;;;9.30;99.90;;;;;;5123053;27;20113;-57
2023/05/20 01:49:40;;;;;;;17.92;11.43;;;9.30;99.90;;;;;;5106075;27;20126;-56
2023/05/20 01:52:07;;;;;;;16.65;10.48;;;9.40;99.90;;;;;;5110112;27;20047;-57
2023/05/20 01:54:34;;;;;;;;;;;9.30;99.90;;;;;;5107437;27;20126;-56
2023/05/20 01:57:01;;;;;;;18.30;12.20;;;9.20;99.90;;;;;;5114266;27;19930;-58
2023/05/20 01:59:28;;;;;;;20.48;11.85;;;9.00;99.90;;;;;;5109944;28;20043;-57
2023/05/20 02:01:55;;;;;;;23.00;12.93;;;8.90;99.90;;;;;;5102349;28;20121;-57
2023/05/20 02:04:22;;;;;;;19.92;12.05;;;8.80;99.90;;;;;;5093506;28;20039;-56
2023/05/20 02:06:49;;;;;;;18.55;12.65;;;8.70;99.90;;;;;;5105629;27;20031;-57
2023/05/20 02:09:17;;;;;;;21.50;11.95;;;8.70;99.90;;;;;;5102279;27;20047;-56
2023/05/20 02:11:44;;;;;;;19.05;11.60;;;8.70;99.90;;;;;;5105580;27;20035;-58
2023/05/20 02:14:11;;;;;;;25.45;14.23;;;8.70;99.90;;;;;;5113461;27;20035;-56
2023/05/20 02:16:38;;;;;;;22.92;15.30;;;8.70;99.90;;;;;;5122854;27;20050;-57
2023/05/20 02:19:04;;;;;;;21.95;13.30;;;8.70;99.90;;;;;;5113537;27;20050;-58
2023/05/20 02:21:31;;;;;;;20.40;13.77;;;8.70;99.90;;;;;;5101181;28;20031;-57
2023/05/20 02:23:58;;;;;;;25.65;14.30;;;8.80;99.90;;;;;;5119433;27;20039;-58
2023/05/20 02:26:25;;;;;;;25.73;13.60;;;8.80;99.90;;;;;;5111706;28;20058;-56
2023/05/20 02:28:52;;;;;;;21.80;12.63;;;8.90;99.90;;;;;;5113812;27;20039;-58
2023/05/20 02:31:21;;;;;;;20.25;12.32;;;9.00;99.90;;;;;;5104563;28;20614;-57
2023/05/20 02:33:48;;;;;;;22.10;13.10;;;9.10;99.90;;;;;;5098430;28;20040;-55
2023/05/20 02:36:16;;;;;;;21.52;13.80;;;9.10;99.90;;;;;;5121594;27;20078;-57
2023/05/20 02:38:43;;;;;;;21.17;13.43;;;9.10;99.90;;;;;;5113920;28;20035;-57
2023/05/20 02:41:10;;;;;;;21.25;12.20;;;9.10;99.90;;;;;;5095004;28;20036;-57
2023/05/20 02:43:37;;;;;;;21.45;12.80;;;9.10;99.90;;;;;;5111277;27;20418;-57
2023/05/20 02:46:04;;;;;;;;;;;9.00;99.90;;;;;;5101619;28;20123;-57
2023/05/20 02:48:31;;;;;;;19.67;12.23;;;8.90;99.90;;;;;;5113552;28;19972;-57
2023/05/20 02:50:59;;;;;;;21.45;12.68;;;8.80;99.90;;;;;;5103137;28;20035;-57
2023/05/20 02:53:25;;;;;;;22.00;13.05;;;8.70;99.90;;;;;;5109515;27;20497;-57
2023/05/20 02:55:53;;;;;;;22.13;13.35;;;8.70;99.90;;;;;;5111135;27;20031;-56
2023/05/20 02:58:25;;;;;;;20.58;13.07;;;8.70;99.90;;;;;;5113373;28;20035;-56
2023/05/20 03:00:52;;;;;;;17.98;11.43;;;8.70;99.90;;;;;;5106580;28;20039;-56
2023/05/20 03:03:19;;;;;;;18.15;11.55;;;8.80;99.90;;;;;;5110328;27;20036;-57
2023/05/20 03:05:46;;;;;;;20.60;11.07;;;8.80;99.90;;;;;;5111271;27;20491;-56
2023/05/20 03:08:13;;;;;;;20.60;12.73;;;8.90;99.90;;;;;;5112788;28;20680;-57
2023/05/20 03:10:40;;;;;;;22.35;12.48;;;8.90;99.90;;;;;;5113329;28;20051;-55
2023/05/20 03:13:08;;;;;;;19.35;11.77;;;8.90;99.90;;;;;;5108935;27;20043;-56
2023/05/20 03:15:40;;;;;;;19.25;12.13;;;8.90;99.90;;;;;;5111259;27;20036;-57
2023/05/20 03:18:07;;;;;;;20.98;12.50;;;9.00;99.90;;;;;;5093679;28;20067;-57
2023/05/20 03:20:35;;;;;;;17.70;12.27;;;9.00;99.90;;;;;;5104824;28;20035;-58
2023/05/20 03:23:03;;;;;;;19.65;12.77;;;8.90;99.90;;;;;;5103969;28;20092;-57
2023/05/20 03:25:30;;;;;;;23.35;12.82;;;8.90;99.90;;;;;;5110524;28;20134;-57
2023/05/20 03:27:58;;;;;;;;;;;8.90;99.90;;;;;;5106643;27;20141;-54
2023/05/20 03:30:26;;;;;;;17.98;12.10;;;8.90;99.90;;;;;;5113636;27;20301;-56
2023/05/20 03:32:56;;;;;;;22.48;13.30;;;8.90;99.90;;;;;;5109209;28;20036;-57
2023/05/20 03:35:24;;;;;;;20.98;13.57;;;8.90;99.90;;;;;;5112935;27;20053;-55
2023/05/20 03:37:52;;;;;;;17.55;11.95;;;8.90;99.90;;;;;;5111035;27;20043;-54
2023/05/20 03:40:21;;;;;;;18.23;11.73;;;8.80;99.90;;;;;;5107973;27;20407;-57
2023/05/20 03:42:49;;;;;;;22.95;11.73;;;8.80;99.90;;;;;;5108388;28;20040;-54
2023/05/20 03:45:18;;;;;;;19.38;11.10;;;8.80;99.90;;;;;;5104535;27;20044;-57
2023/05/20 03:48:02;;;;;;;19.88;11.20;;;8.90;99.90;;;;;;5107285;28;20149;-58
2023/05/20 03:50:31;;;;;;;17.02;11.30;;;8.90;99.90;;;;;;5116113;27;20041;-57
2023/05/20 03:52:59;;;;;;;17.92;11.90;;;8.90;99.90;;;;;;5106720;27;20134;-54
2023/05/20 03:55:31;;;;;;;21.73;11.52;;;8.90;99.90;;;;;;5104690;27;20115;-54
2023/05/20 03:57:58;;;;;;;18.00;10.88;;;8.90;99.90;;;;;;5109826;27;20054;-55
2023/05/20 04:00:24;;;;;;;17.30;9.82;;;8.90;99.90;;;;;;5111571;27;20491;-57
2023/05/20 04:02:51;;;;;;;16.98;10.27;;;9.00;99.90;;;;;;5112748;27;20036;-55
2023/05/20 04:05:20;;;;;;;17.27;9.82;;;9.00;99.90;;;;;;5113425;27;20076;-57
2023/05/20 04:07:47;;;;;;;20.20;12.40;;;9.10;99.90;;;;;;5112290;27;20579;-55
2023/05/20 04:10:14;;;;;;;22.48;11.32;;;9.10;99.90;;;;;;5103912;27;20031;-55
2023/05/20 04:12:41;;;;;;;18.20;12.50;;;9.20;99.90;;;;;;5103439;28;20044;-55
2023/05/20 04:15:08;;;;;;;20.58;12.63;;;9.10;99.90;;;;;;5103944;28;20119;-57
2023/05/20 04:17:47;;;;;;;17.52;10.88;;;9.20;99.90;;;;;;5103698;28;20046;-54
2023/05/20 04:20:14;;;;;;;;;;;9.30;99.90;;;;;;5131974;27;20399;-55
2023/05/20 04:22:41;;;;;;;16.38;11.02;;;9.40;99.90;;;;;;5110569;27;19924;-57
2023/05/20 04:25:08;;;;;;;13.73;9.68;;;9.40;99.90;;;;;;5103584;28;20097;-55
2023/05/20 04:27:38;;;;;;;15.25;9.20;;;9.50;99.90;;;;;;5113532;27;20197;-57
2023/05/20 04:30:06;;;;;;;17.98;11.23;;;9.50;99.90;;;;;;5106089;28;20521;-57
2023/05/20 04:32:37;;;;;;;16.40;11.32;;;9.40;99.90;;;;;;5103802;28;20122;-58
2023/05/20 04:35:10;;;;;;;12.75;8.98;;;9.40;99.90;;;;;;5102720;28;20044;-55
2023/05/20 04:37:41;;;;;;;14.13;9.35;;;9.40;99.90;;;;;;5108101;27;20050;-56
2023/05/20 04:40:08;;;;;;;17.58;10.77;;;9.40;99.90;;;;;;5101166;28;20043;-55
2023/05/20 04:42:36;;;;;;;;;;;9.50;99.90;;;;;;5112363;28;20516;-55
2023/05/20 04:45:04;;;;;;;17.23;11.60;;;9.60;99.90;;;;;;5107922;28;19924;-54
2023/05/20 04:47:37;;;;;;;19.48;12.10;;;9.70;99.90;;;;;;5109959;27;20035;-56
2023/05/20 04:50:09;;;;;;;17.48;12.05;;;9.70;99.90;;;;;;5102959;27;20085;-57
2023/05/20 04:52:40;;;;;;;17.95;11.35;;;9.90;99.90;;;;;;5102530;28;20035;-58
2023/05/20 04:55:09;;;;;;;17.92;9.93;;;10.00;99.90;;;;;;5124572;27;20032;-55
2023/05/20 04:57:38;;;;;;;13.75;8.93;;;10.20;99.90;;;;;;5101455;28;20089;-54
2023/05/20 05:00:06;;;;;;;15.43;8.82;;;10.30;99.90;;;;;;5099289;28;20279;-54
2023/05/20 05:02:34;;;;;;;13.43;9.35;;;10.50;99.90;;;;;;5112526;27;20031;-54
2023/05/20 05:05:02;;;;;;;12.60;8.10;;;10.70;99.90;;;;;;5105854;27;20046;-54
2023/05/20 05:07:29;;;;;;;12.48;7.47;;;10.90;99.90;;;;;;5115982;27;20070;-55
2023/05/20 05:09:55;;;;;;;10.88;7.15;;;11.10;99.90;;;;;;5117889;27;20058;-54
2023/05/20 05:12:22;;;;;;;13.35;8.57;;;11.20;99.90;;;;;;5102464;27;20138;-54
2023/05/20 05:14:49;;;;;;;13.85;9.00;;;11.30;99.90;;;;;;5109160;28;20078;-54
2023/05/20 05:17:17;;;;;;;16.05;10.27;;;11.40;99.90;;;;;;5108519;27;20047;-54
2023/05/20 05:19:43;;;;;;;15.73;11.15;;;11.60;99.90;;;;;;5098904;27;20129;-55
2023/05/20 05:22:10;;;;;;;17.23;11.75;;;11.60;99.90;;;;;;5096964;27;20051;-55
2023/05/20 05:24:38;;;;;;;17.85;11.35;;;11.60;99.90;;;;;;5100494;28;20039;-54
2023/05/20 05:27:05;;;;;;;18.38;11.68;;;11.50;99.90;;;;;;5111202;27;20135;-54
2023/05/20 05:29:32;;;;;;;16.02;10.52;;;11.60;99.90;;;;;;5113814;27;20065;-54
2023/05/20 05:31:58;;;;;;;14.18;10.52;;;11.60;99.90;;;;;;5118308;27;20045;-54
2023/05/20 05:34:25;;;;;;;18.48;10.88;;;11.70;99.90;;;;;;5111965;27;20122;-56
2023/05/20 05:36:53;;;;;;;22.42;12.80;;;11.70;99.90;;;;;;5132253;27;20080;-54
2023/05/20 05:39:20;;;;;;;19.48;12.20;;;11.80;99.90;;;;;;5105575;27;20454;-54
2023/05/20 05:41:47;;;;;;;16.85;12.07;;;11.80;99.90;;;;;;5124958;27;20127;-54
2023/05/20 05:44:14;;;;;;;20.40;11.15;;;11.80;99.90;;;;;;5095172;28;20119;-54
2023/05/20 05:46:41;;;;;;;17.00;11.63;;;11.90;99.90;;;;;;5120135;27;20484;-55
2023/05/20 05:49:08;;;;;;;23.90;11.57;;;11.90;99.90;;;;;;5127696;27;20487;-54
2023/05/20 05:51:35;;;;;;;18.25;10.90;;;12.00;99.90;;;;;;5100992;28;20043;-54
2023/05/20 05:54:04;;;;;;;17.42;10.85;;;12.10;99.90;;;;;;5100681;27;20035;-54
2023/05/20 05:56:31;;;;;;;17.80;11.10;;;12.20;99.90;;;;;;5096827;27;20069;-54
2023/05/20 05:58:58;;;;;;;15.90;11.13;;;12.20;99.90;;;;;;5123274;27;20043;-54
2023/05/20 06:01:25;;;;;;;;;;;12.20;99.90;;;;;;5113801;27;20101;-54
2023/05/20 06:03:52;;;;;;;16.45;11.00;;;12.20;99.90;;;;;;5117375;27;19955;-54
2023/05/20 06:06:19;;;;;;;;;;;12.20;99.90;;;;;;5105185;28;20151;-54
2023/05/20 06:08:47;;;;;;;17.48;11.68;;;12.20;99.90;;;;;;5110580;27;19972;-54
2023/05/20 06:11:15;;;;;;;17.23;11.23;;;12.30;99.90;;;;;;5104724;27;20039;-54
2023/05/20 06:13:41;;;;;;;17.50;11.27;;;12.40;99.90;;;;;;5104980;27;20032;-54
2023/05/20 06:16:08;;;;;;;26.40;12.15;;;12.50;99.90;;;;;;5105220;27;20126;-54
2023/05/20 06:18:35;;;;;;;18.27;11.75;;;12.60;99.90;;;;;;5096646;28;20072;-57
2023/05/20 06:21:04;;;;;;;21.00;10.88;;;12.70;99.90;;;;;;5113016;27;20042;-54
2023/05/20 06:23:31;;;;;;;14.38;9.95;;;12.80;99.90;;;;;;5113421;27;20054;-55
2023/05/20 06:26:00;;;;;;;15.07;9.77;;;12.90;99.90;;;;;;5093016;28;20047;-55
2023/05/20 06:28:29;;;;;;;14.10;9.35;;;12.90;99.90;;;;;;5101443;27;20396;-54
2023/05/20 06:30:56;;;;;;;16.67;9.70;;;13.10;99.90;;;;;;5105611;28;20604;-55
2023/05/20 06:33:26;;;;;;;14.18;10.05;;;13.10;99.90;;;;;;5102714;28;20043;-54
2023/05/20 06:35:57;;;;;;;12.30;8.73;;;13.20;99.90;;;;;;5112697;28;20039;-54
2023/05/20 06:38:24;;;;;;;13.85;9.70;;;13.30;99.90;;;;;;5107536;27;20071;-54
2023/05/20 06:40:51;;;;;;;13.38;9.48;;;13.30;99.90;;;;;;5101467;28;20074;-54
2023/05/20 06:43:18;;;;;;;16.13;9.27;;;13.40;99.90;;;;;;5101051;28;20146;-54
2023/05/20 06:46:20;;;;;;;13.68;9.68;;;13.60;99.90;;;;;;5040380;28;20119;-55
2023/05/20 06:48:53;;;;;;;16.10;9.45;;;13.60;99.90;;;;;;5113248;28;20035;-54
2023/05/20 06:51:20;;;;;;;16.40;9.68;;;13.80;99.90;;;;;;5104160;27;20043;-55
2023/05/20 06:53:49;;;;;;;14.05;8.90;;;13.90;99.90;;;;;;5108096;28;20123;-57
2023/05/20 06:56:15;;;;;;;14.93;9.45;;;14.00;99.90;;;;;;5105719;28;20558;-54
2023/05/20 06:58:43;;;;;;;14.20;9.13;;;14.10;99.90;;;;;;5111304;27;20118;-55
2023/05/20 07:01:09;;;;;;;14.73;9.05;;;14.20;99.90;;;;;;5101231;28;20135;-54
2023/05/20 07:03:37;;;;;;;11.05;8.45;;;14.30;99.90;;;;;;5106753;27;20109;-54
2023/05/20 07:06:04;;;;;;;12.73;7.93;;;14.40;99.90;;;;;;5112887;28;20070;-54
2023/05/20 07:08:31;;;;;;;;;;;14.40;99.90;;;;;;5115812;27;20055;-54
2023/05/20 07:10:58;;;;;;;11.75;9.00;;;14.50;99.90;;;;;;5114530;27;19919;-56
2023/05/20 07:13:25;;;;;;;13.35;9.18;;;14.50;99.90;;;;;;5116427;27;20039;-55
2023/05/20 07:15:52;;;;;;;12.02;8.25;;;14.60;99.90;;;;;;5117166;27;20035;-54
2023/05/20 07:18:19;;;;;;;10.40;8.50;;;14.80;99.90;;;;;;5106748;27;20432;-55
2023/05/20 07:20:51;;;;;;;10.80;7.72;;;15.20;99.90;;;;;;5108783;27;20043;-55
2023/05/20 07:23:38;;;;;;;11.95;9.32;;;15.40;99.90;;;;;;5066212;27;20056;-56
2023/05/20 07:26:05;;;;;;;11.25;7.97;;;15.50;99.90;;;;;;5110593;28;20044;-54
2023/05/20 07:28:33;;;;;;;10.68;7.57;;;15.60;99.90;;;;;;5109405;27;20510;-54
2023/05/20 07:31:00;;;;;;;11.00;7.65;;;16.00;99.90;;;;;;5112919;27;20039;-57
2023/05/20 07:33:28;;;;;;;14.90;8.10;;;16.30;99.90;;;;;;5106705;27;20039;-54
2023/05/20 07:35:55;;;;;;;11.40;7.15;;;16.50;99.90;;;;;;5111535;28;20043;-54
2023/05/20 07:38:23;;;;;;;11.10;7.82;;;16.60;99.90;;;;;;5109817;28;20070;-54
2023/05/20 07:40:55;;;;;;;10.30;7.47;;;16.60;99.90;;;;;;5106349;27;20039;-55
2023/05/20 07:43:23;;;;;;;;;;;16.50;99.90;;;;;;5108032;27;20495;-58
2023/05/20 07:45:49;;;;;;;9.95;7.82;;;16.70;99.90;;;;;;5104689;28;19925;-56
2023/05/20 07:48:16;;;;;;;15.73;7.68;;;16.90;99.90;;;;;;5126856;27;20127;-55
2023/05/20 07:50:43;;;;;;;10.07;8.00;;;17.10;99.90;;;;;;5113099;27;20031;-55
2023/05/20 07:53:11;;;;;;;10.52;7.55;;;17.20;99.90;;;;;;5103496;28;20036;-55
2023/05/20 07:55:38;;;;;;;;;;;17.20;99.90;;;;;;5108562;27;20622;-54
2023/05/20 07:58:05;;;;;;;10.45;7.13;;;16.80;99.90;;;;;;5103420;27;19923;-55
2023/05/20 08:00:34;;;;;;;11.18;7.88;;;16.70;99.90;;;;;;5103752;27;20071;-54
2023/05/20 08:03:06;;;;;;;11.07;7.50;;;16.50;99.90;;;;;;5095828;28;20540;-54
2023/05/20 08:05:51;;;;;;;12.10;7.72;;;16.40;99.90;;;;;;5104436;28;20048;-54
2023/05/20 08:08:17;;;;;;;10.27;7.35;;;16.30;99.90;;;;;;5112426;27;20088;-54
2023/05/20 08:10:53;;;;;;;8.30;6.55;;;16.50;99.90;;;;;;5115569;27;20041;-54
2023/05/20 08:13:23;;;;;;;9.10;6.43;;;16.70;99.90;;;;;;5115406;27;20067;-54
2023/05/20 08:15:54;;;;;;;11.38;7.10;;;16.80;99.90;;;;;;5112630;27;20474;-56
2023/05/20 08:18:23;;;;;;;9.00;6.40;;;16.80;99.90;;;;;;5095525;27;20047;-55
2023/05/20 08:20:50;;;;;;;;;;;16.70;99.90;;;;;;5103886;27;20051;-54
2023/05/20 08:23:17;;;;;;;10.02;5.97;;;16.80;99.90;;;;;;5108146;28;20399;-54
2023/05/20 08:25:45;;;;;;;10.52;7.40;;;16.90;99.90;;;;;;5110829;27;20412;-55
2023/05/20 08:28:13;;;;;;;11.65;7.72;;;17.00;99.90;;;;;;5101284;27;20429;-55
2023/05/20 08:30:40;;;;;;;;;;;17.20;99.90;;;;;;5114498;27;20046;-54
2023/05/20 08:33:07;;;;;;;9.73;6.82;;;17.60;99.90;;;;;;5115421;27;19944;-54
2023/05/20 08:35:34;;;;;;;;;;;17.80;99.90;;;;;;5105744;27;20080;-54
2023/05/20 08:38:01;;;;;;;9.68;6.07;;;18.00;99.90;;;;;;5103940;28;19920;-54
2023/05/20 08:40:28;;;;;;;9.55;7.40;;;18.20;99.90;;;;;;5113723;27;20047;-56
2023/05/20 08:42:56;;;;;;;10.48;6.88;;;18.00;99.90;;;;;;5115387;27;20104;-54
2023/05/20 08:45:27;;;;;;;12.52;6.90;;;18.00;99.90;;;;;;5115254;27;20043;-54
2023/05/20 08:47:59;;;;;;;8.52;6.90;;;18.10;99.90;;;;;;5107842;28;20480;-56
2023/05/20 08:50:26;;;;;;;8.50;6.65;;;18.30;99.90;;;;;;5112973;27;20093;-54
2023/05/20 08:52:53;;;;;;;10.75;6.55;;;18.50;99.90;;;;;;5117048;27;20045;-54
2023/05/20 08:55:42;;;;;;;9.52;6.70;;;18.50;99.90;;;;;;5125108;27;20057;-55
2023/05/20 08:58:09;;;;;;;9.73;6.95;;;18.80;99.90;;;;;;5115118;27;20032;-54
2023/05/20 09:00:37;;;;;;;9.40;5.97;;;19.30;99.90;;;;;;5114323;27;20048;-54
2023/05/20 09:03:04;;;;;;;10.07;6.75;;;19.50;99.90;;;;;;5118179;27;20032;-54
2023/05/20 09:05:31;;;;;;;;;;;19.50;99.90;;;;;;5125028;27;20047;-54
2023/05/20 09:08:06;;;;;;;9.97;7.27;;;19.50;99.90;;;;;;5112328;27;19998;-54
2023/05/20 09:10:33;;;;;;;10.02;5.78;;;19.70;99.90;;;;;;5113689;27;20043;-54
2023/05/20 09:13:03;;;;;;;18.13;6.50;;;19.90;99.90;;;;;;5124901;27;20031;-54
2023/05/20 09:15:31;;;;;;;10.95;5.95;;;20.00;99.90;;;;;;5125848;27;20039;-54
2023/05/20 09:18:00;;;;;;;9.20;6.75;;;19.90;99.90;;;;;;5107696;27;20045;-54
2023/05/20 09:20:29;;;;;;;7.75;6.45;;;19.90;99.90;;;;;;5124155;27;20044;-54
2023/05/20 09:23:00;;;;;;;8.00;6.22;;;20.10;99.90;;;;;;5133186;27;20031;-54
2023/05/20 09:25:28;;;;;;;9.07;5.63;;;20.30;99.90;;;;;;5115746;27;20046;-56
2023/05/20 09:27:55;;;;;;;11.02;5.80;;;20.50;99.90;;;;;;5120758;27;20396;-54
2023/05/20 09:30:23;;;;;;;11.82;5.75;;;21.00;99.90;;;;;;5112255;27;20404;-54
2023/05/20 09:32:57;;;;;;;7.03;4.97;;;21.10;99.90;;;;;;5111613;27;20036;-55
2023/05/20 09:35:25;;;;;;;8.10;4.80;;;21.20;99.90;;;;;;5120461;27;20036;-57
2023/05/20 09:37:56;;;;;;;7.82;5.20;;;21.30;99.90;;;;;;5111513;27;20039;-54
2023/05/20 09:40:25;;;;;;;6.07;4.70;;;21.30;99.90;;;;;;5112338;27;20032;-54
2023/05/20 09:43:10;;;;;;;9.40;5.38;;;21.10;99.90;;;;;;5118475;27;20071;-54
2023/05/20 09:45:37;;;;;;;7.30;5.93;;;20.80;99.90;;;;;;5112049;27;20043;-54
2023/05/20 09:48:04;;;;;;;9.93;6.55;;;20.40;99.90;;;;;;5125642;27;20043;-54
2023/05/20 09:50:32;;;;;;;11.35;7.13;;;20.30;99.90;;;;;;5121697;27;20062;-54
2023/05/20 09:53:01;;;;;;;;;;;20.10;99.90;;;;;;5116950;27;20035;-54
2023/05/20 09:55:29;;;;;;;12.63;7.82;;;19.90;99.90;;;;;;5123923;27;19919;-56
2023/05/20 09:58:00;;;;;;;11.85;8.52;;;19.80;99.90;;;;;;5112033;27;20353;-54
2023/05/20 10:00:27;;;;;;;14.15;9.27;;;19.60;99.90;;;;;;5111929;27;20131;-55
2023/05/20 10:02:54;;;;;;;13.57;9.23;;;19.50;99.90;;;;;;5123017;27;20042;-55
2023/05/20 10:05:30;;;;;;;17.77;9.88;;;19.50;99.90;;;;;;5124628;27;20567;-55
2023/05/20 10:08:27;;;;;;;13.50;8.15;;;19.70;99.90;;;;;;5111541;27;20506;-54
2023/05/20 10:11:21;;;;;;;13.50;8.95;;;19.80;99.90;;;;;;5111427;27;20391;-57
2023/05/20 10:14:11;;;;;;;14.70;9.45;;;19.90;99.90;;;;;;5120082;27;20123;-54
2023/05/20 10:16:41;;;;;;;19.25;10.43;;;20.00;99.90;;;;;;5111298;27;20040;-54
2023/05/20 10:19:32;;;;;;;12.63;9.80;;;20.00;99.90;;;;;;5117085;27;20055;-54
2023/05/20 10:22:04;;;;;;;14.68;10.40;;;20.00;99.90;;;;;;5115929;27;20100;-54
2023/05/20 10:24:36;;;;;;;13.90;9.55;;;20.30;99.90;;;;;;5113792;27;20039;-55
2023/05/20 10:27:13;;;;;;;12.23;9.45;;;20.50;99.90;;;;;;5111846;27;20043;-55
2023/05/20 10:29:50;;;;;;;12.50;9.25;;;20.70;99.90;;;;;;5128170;27;20043;-54
2023/05/20 10:32:30;;;;;;;14.10;8.95;;;20.80;99.90;;;;;;5119793;27;20437;-55
2023/05/20 10:35:07;;;;;;;13.63;8.85;;;20.70;99.90;;;;;;5111005;27;20067;-57
2023/05/20 10:37:45;;;;;;;14.90;8.90;;;20.60;99.90;;;;;;5110698;27;20040;-54
2023/05/20 10:40:13;;;;;;;13.02;10.02;;;20.40;99.90;;;;;;5116275;27;20518;-54
2023/05/20 10:42:42;;;;;;;11.90;9.02;;;20.40;99.90;;;;;;5110609;27;20047;-56
2023/05/20 10:45:09;;;;;;;11.77;9.05;;;20.60;99.90;;;;;;5125162;28;20035;-55
2023/05/20 10:47:41;;;;;;;15.90;10.13;;;20.70;99.90;;;;;;5124947;28;20171;-58
2023/05/20 10:50:25;;;;;;;17.50;10.50;;;20.90;99.90;;;;;;5131726;28;20035;-55
2023/05/20 10:52:52;;;;;;;14.75;10.75;;;21.20;99.90;;;;;;5111591;27;20036;-55
2023/05/20 10:55:21;;;;;;;;;;;21.40;99.90;;;;;;5121290;28;20436;-54
2023/05/20 10:57:47;;;;;;;12.07;9.15;;;21.50;99.90;;;;;;5111553;27;19920;-54
2023/05/20 11:00:15;;;;;;;19.40;8.18;;;21.50;99.90;;;;;;5110264;27;20058;-54
2023/05/20 11:02:43;;;;;;;13.57;8.75;;;21.70;99.90;;;;;;5127232;27;20130;-56
2023/05/20 11:05:11;;;;;;;10.13;7.80;;;21.70;99.90;;;;;;5116381;28;20043;-56
2023/05/20 11:07:38;;;;;;;14.02;8.10;;;21.70;99.90;;;;;;5114403;28;20044;-55
2023/05/20 11:10:08;;;;;;;10.05;7.03;;;21.90;99.90;;;;;;5111086;28;20399;-54
2023/05/20 11:12:35;;;;;;;7.55;6.60;;;22.00;99.90;;;;;;5119687;27;20040;-54
2023/05/20 11:15:02;;;;;;;10.40;6.55;;;22.30;99.90;;;;;;5123926;27;20359;-55
2023/05/20 11:17:29;;;;;;;10.68;6.90;;;22.40;99.90;;;;;;5111155;27;20496;-56
2023/05/20 11:19:59;;;;;;;9.35;6.68;;;22.60;99.90;;;;;;5119179;27;20492;-56
2023/05/20 11:22:26;;;;;;;7.70;5.60;;;22.80;99.90;;;;;;5127249;28;20212;-57
2023/05/20 11:24:53;;;;;;;5.00;4.50;;;23.10;99.90;;;;;;5117230;27;20062;-54
2023/05/20 11:27:19;;;;;;;9.13;4.85;;;23.10;99.90;;;;;;5111181;28;20051;-54
2023/05/20 11:29:49;;;;;;;6.57;4.40;;;22.90;99.90;;;;;;5129565;28;20415;-58
2023/05/20 11:32:25;;;;;;;8.73;4.72;;;22.70;99.90;;;;;;5124181;27;20043;-54
2023/05/20 11:34:52;;;;;;;8.48;4.90;;;22.40;99.90;;;;;;5110228;27;20050;-57
2023/05/20 11:37:20;;;;;;;7.90;4.57;;;22.40;99.90;;;;;;5110831;28;20431;-56
2023/05/20 11:39:47;;;;;;;6.70;4.53;;;22.60;99.90;;;;;;5121254;28;20368;-56
2023/05/20 11:42:15;;;;;;;6.72;4.57;;;23.20;99.90;;;;;;5119348;28;20051;-55
2023/05/20 11:44:45;;;;;;;8.77;4.55;;;23.60;99.90;;;;;;5110536;27;20055;-56
2023/05/20 11:47:12;;;;;;;7.15;4.85;;;24.10;99.90;;;;;;5110270;27;20047;-54
2023/05/20 11:49:39;;;;;;;7.53;4.13;;;24.30;99.90;;;;;;5129372;27;20043;-54
2023/05/20 11:52:09;;;;;;;6.97;3.92;;;24.40;99.30;;;;;;5125673;27;20046;-57
2023/05/20 11:54:35;;;;;;;4.18;3.70;;;24.60;99.30;;;;;;5117867;27;20426;-56
2023/05/20 11:57:02;;;;;;;10.25;3.83;;;25.00;97.90;;;;;;5123316;27;20044;-55
2023/05/20 11:59:32;;;;;;;5.22;3.60;;;25.30;97.30;;;;;;5113788;27;20070;-55
2023/05/20 12:01:59;;;;;;;;;;;25.40;96.20;;;;;;5131365;27;20044;-57
2023/05/20 12:04:26;;;;;;;8.00;4.35;;;25.60;94.90;;;;;;5112985;27;19920;-56
2023/05/20 12:06:54;;;;;;;4.82;4.05;;;25.90;95.90;;;;;;5125395;27;20448;-55
2023/05/20 12:09:21;;;;;;;7.05;4.15;;;26.10;96.40;;;;;;5123780;27;20036;-57
2023/05/20 12:11:48;;;;;;;6.07;4.13;;;26.20;95.60;;;;;;5113818;27;20081;-54
2023/05/20 12:14:14;;;;;;;4.55;4.05;;;26.10;94.20;;;;;;5127849;27;20063;-54
2023/05/20 12:16:41;;;;;;;8.63;4.18;;;25.70;91.10;;;;;;5125497;27;20058;-55
2023/05/20 12:19:08;;;;;;;6.35;3.67;;;25.10;91.30;;;;;;5113722;27;20074;-54
2023/05/20 12:21:35;;;;;;;7.22;3.95;;;24.50;90.90;;;;;;5113887;27;20067;-55
2023/05/20 12:24:04;;;;;;;;;;;24.00;90.60;;;;;;5117698;27;20039;-55
2023/05/20 12:26:31;;;;;;;6.18;3.38;;;23.60;90.90;;;;;;5118195;27;19932;-54
2023/05/20 12:28:58;;;;;;;3.70;3.20;;;23.50;87.70;;;;;;5133476;27;20083;-56
2023/05/20 12:31:25;;;;;;;4.97;3.35;;;23.70;87.90;;;;;;5112303;27;20051;-57
2023/05/20 12:33:52;;;;;;;3.95;3.58;;;24.00;90.10;;;;;;5115105;27;20039;-55
2023/05/20 12:36:18;;;;;;;4.85;3.67;;;24.40;91.60;;;;;;5119840;27;20046;-58
2023/05/20 12:38:45;;;;;;;7.18;3.75;;;24.80;90.10;;;;;;5115672;27;20117;-54
2023/05/20 12:41:12;;;;;;;;;;;25.00;88.50;;;;;;5114034;28;20067;-54
2023/05/20 12:43:39;;;;;;;5.35;3.47;;;25.10;87.50;;;;;;5129995;27;20367;-54
2023/05/20 12:46:06;;;;;;;29.40;8.75;;;25.30;80.90;;;;;;5129907;27;20488;-54
2023/05/20 12:48:33;;;;;;;6.20;4.18;;;25.10;79.90;;;;;;5113538;27;20040;-57
2023/05/20 12:51:00;;;;;;;6.20;3.70;;;25.20;76.90;;;;;;5112951;27;20404;-54